createdAt,value
2019-03-08T00:00:16.503Z,95448.94
2019-03-08T00:02:42.495Z,95440.94
2019-03-08T00:05:08.515Z,95445.47
2019-03-08T00:07:34.513Z,95442.28
2019-03-08T00:10:00.507Z,95447.19
2019-03-08T00:12:26.514Z,95442.39
2019-03-08T00:14:52.508Z,95434.28
2019-03-08T00:17:18.512Z,95437.47
2019-03-08T00:19:44.514Z,95431.39
2019-03-08T00:22:10.514Z,95438.39
2019-03-08T00:24:36.513Z,95441.47
2019-03-08T00:27:02.519Z,95440.22
2019-03-08T00:29:28.511Z,95439.30
2019-03-08T00:31:54.516Z,95442.89
2019-03-08T00:34:20.513Z,95449.55
2019-03-08T00:36:46.512Z,95448.22
2019-03-08T00:39:12.507Z,95450.58
2019-03-08T00:41:38.527Z,95455.00
2019-03-08T00:44:04.522Z,95453.75
2019-03-08T00:46:30.524Z,95450.25
2019-03-08T00:48:56.527Z,95448.42
2019-03-08T00:51:22.524Z,95459.08
2019-03-08T00:53:48.527Z,95447.20
2019-03-08T00:56:14.523Z,95447.58
2019-03-08T00:58:40.523Z,95444.00
2019-03-08T01:01:06.526Z,95438.25
2019-03-08T01:03:32.535Z,95439.20
2019-03-08T01:05:58.538Z,95437.00
2019-03-08T01:08:24.525Z,95430.75
2019-03-08T01:10:50.527Z,95434.34
2019-03-08T01:13:16.525Z,95434.75
2019-03-08T01:15:42.525Z,95437.92
2019-03-08T01:18:08.527Z,95440.08
2019-03-08T01:20:34.527Z,95440.08
2019-03-08T01:23:00.531Z,95439.59
2019-03-08T01:25:26.518Z,95433.88
2019-03-08T01:27:52.540Z,95436.58
2019-03-08T01:30:18.536Z,95439.25
2019-03-08T01:32:44.544Z,95436.58
2019-03-08T01:35:10.539Z,95426.42
2019-03-08T01:37:36.544Z,95429.50
2019-03-08T01:40:02.549Z,95427.37
2019-03-08T01:42:28.538Z,95423.75
2019-03-08T01:44:54.539Z,95428.17
2019-03-08T01:47:20.535Z,95431.75
2019-03-08T01:49:46.569Z,95429.09
2019-03-08T01:52:12.576Z,95433.92
2019-03-08T01:54:38.572Z,95429.92
2019-03-08T01:57:04.566Z,95428.28
2019-03-08T01:59:30.566Z,95430.03
2019-03-08T02:01:56.564Z,95433.09
2019-03-08T02:04:22.563Z,95432.78
2019-03-08T02:06:48.578Z,95435.37
2019-03-08T02:09:14.574Z,95440.70
2019-03-08T02:11:40.572Z,95435.45
2019-03-08T02:14:06.566Z,95438.11
2019-03-08T02:16:32.564Z,95438.11
2019-03-08T02:18:58.566Z,95443.45
2019-03-08T02:21:24.570Z,95440.28
2019-03-08T02:23:50.566Z,95439.75
2019-03-08T02:26:16.568Z,95438.95
2019-03-08T02:28:42.572Z,95440.78
2019-03-08T02:31:08.562Z,95448.47
2019-03-08T02:33:34.565Z,95446.53
2019-03-08T02:36:00.564Z,95440.86
2019-03-08T02:38:26.569Z,95440.48
2019-03-08T02:40:52.570Z,95447.52
2019-03-08T02:43:18.574Z,95445.81
2019-03-08T02:45:44.571Z,95448.86
2019-03-08T02:48:10.561Z,95452.05
2019-03-08T02:50:36.567Z,95451.52
2019-03-08T02:53:02.559Z,95451.52
2019-03-08T02:55:28.563Z,95459.13
2019-03-08T02:57:54.562Z,95457.80
2019-03-08T03:00:20.565Z,95449.47
2019-03-08T03:02:46.560Z,95460.47
2019-03-08T03:05:12.559Z,95457.47
2019-03-08T03:07:38.555Z,95458.30
2019-03-08T03:10:04.582Z,95455.22
2019-03-08T03:12:30.584Z,95464.13
2019-03-08T03:14:56.578Z,95456.55
2019-03-08T03:17:22.584Z,95460.97
2019-03-08T03:19:48.579Z,95463.21
2019-03-08T03:22:14.588Z,95468.13
2019-03-08T03:24:40.588Z,95469.46
2019-03-08T03:27:06.607Z,95468.66
2019-03-08T03:29:32.606Z,95464.96
2019-03-08T03:31:58.643Z,95470.80
2019-03-08T03:34:24.704Z,95466.80
2019-03-08T03:36:50.692Z,95477.98
2019-03-08T03:39:16.695Z,95473.45
2019-03-08T03:41:42.692Z,95473.05
2019-03-08T03:44:08.694Z,95477.57
2019-03-08T03:46:34.697Z,95479.20
2019-03-08T03:49:00.701Z,95475.20
2019-03-08T03:51:26.698Z,95480.53
2019-03-08T03:53:52.720Z,95480.23
2019-03-08T03:56:18.720Z,95482.78
2019-03-08T03:58:44.727Z,95491.20
2019-03-08T04:01:10.738Z,95490.37
2019-03-08T04:03:36.731Z,95495.70
2019-03-08T04:06:02.742Z,95493.86
2019-03-08T04:08:28.741Z,95498.70
2019-03-08T04:10:54.746Z,95488.53
2019-03-08T04:13:20.747Z,95489.78
2019-03-08T04:15:46.749Z,95492.11
2019-03-08T04:18:12.748Z,95496.53
2019-03-08T04:20:38.744Z,95495.31
2019-03-08T04:23:04.743Z,95499.20
2019-03-08T04:25:30.756Z,95494.78
2019-03-08T04:27:56.756Z,95491.20
2019-03-08T04:30:22.772Z,95489.87
2019-03-08T04:32:48.768Z,95482.38
2019-03-08T04:35:14.795Z,95484.03
2019-03-08T04:37:40.792Z,95483.63
2019-03-08T04:40:06.788Z,95478.98
2019-03-08T04:42:32.791Z,95477.38
2019-03-08T04:44:58.786Z,95477.79
2019-03-08T04:47:24.793Z,95471.34
2019-03-08T04:49:50.787Z,95471.19
2019-03-08T04:52:16.792Z,95465.73
2019-03-08T04:54:42.850Z,95472.63
2019-03-08T04:57:08.850Z,95468.44
2019-03-08T04:59:34.847Z,95468.44
2019-03-08T05:02:00.855Z,95467.19
2019-03-08T05:04:26.930Z,95468.63
2019-03-08T05:06:52.932Z,95464.21
2019-03-08T05:09:18.939Z,95468.71
2019-03-08T05:11:44.960Z,95473.13
2019-03-08T05:14:10.960Z,95467.84
2019-03-08T05:16:36.961Z,95468.98
2019-03-08T05:19:02.960Z,95464.91
2019-03-08T05:21:30.702Z,95467.35
2019-03-08T05:23:54.962Z,95470.94
2019-03-08T05:26:20.999Z,95471.48
2019-03-08T05:28:47.004Z,95469.96
2019-03-08T05:31:13.011Z,95470.48
2019-03-08T05:33:39.019Z,95479.20
2019-03-08T05:36:05.019Z,95487.73
2019-03-08T05:38:31.022Z,95489.14
2019-03-08T05:40:57.010Z,95484.88
2019-03-08T05:43:23.007Z,95489.06
2019-03-08T05:45:48.998Z,95489.37
2019-03-08T05:48:15.000Z,95492.03
2019-03-08T05:50:40.996Z,95499.61
2019-03-08T05:53:07.032Z,95494.28
2019-03-08T05:55:33.064Z,95489.87
2019-03-08T05:57:59.062Z,95492.03
2019-03-08T06:00:31.572Z,95491.92
2019-03-08T06:02:51.070Z,95492.03
2019-03-08T06:05:17.076Z,95493.59
2019-03-08T06:07:43.077Z,95500.67
2019-03-08T06:10:09.191Z,95505.59
2019-03-08T06:12:35.184Z,95500.03
2019-03-08T06:15:03.672Z,95498.59
2019-03-08T06:17:29.672Z,95499.42
2019-03-08T06:19:55.676Z,95501.36
2019-03-08T06:22:21.683Z,95499.11
2019-03-08T06:24:47.680Z,95500.03
2019-03-08T06:27:13.706Z,95503.11
2019-03-08T06:29:39.708Z,95503.53
2019-03-08T06:32:05.707Z,95504.45
2019-03-08T06:34:32.921Z,95502.78
2019-03-08T06:36:57.727Z,95500.03
2019-03-08T06:39:23.725Z,95493.86
2019-03-08T06:41:49.716Z,95497.78
2019-03-08T06:44:15.720Z,95501.86
2019-03-08T06:46:41.755Z,95509.78
2019-03-08T06:49:07.761Z,95499.61
2019-03-08T06:51:33.763Z,95499.61
2019-03-08T06:53:59.765Z,95506.78
2019-03-08T06:56:25.762Z,95506.28
2019-03-08T06:58:51.803Z,95507.19
2019-03-08T07:01:17.808Z,95507.61
2019-03-08T07:03:43.807Z,95504.11
2019-03-08T07:06:09.805Z,95503.61
2019-03-08T07:08:35.799Z,95501.78
2019-03-08T07:11:01.801Z,95500.53
2019-03-08T07:13:28.180Z,95501.98
2019-03-08T07:15:53.848Z,95504.53
2019-03-08T07:18:19.846Z,95505.06
2019-03-08T07:20:45.974Z,95509.86
2019-03-08T07:23:11.976Z,95505.98
2019-03-08T07:25:37.999Z,95499.73
2019-03-08T07:28:04.017Z,95501.06
2019-03-08T07:30:30.019Z,95503.39
2019-03-08T07:32:56.031Z,95501.98
2019-03-08T07:35:22.032Z,95501.36
2019-03-08T07:37:48.033Z,95492.95
2019-03-08T07:40:15.772Z,95496.64
2019-03-08T07:42:40.058Z,95491.81
2019-03-08T07:45:06.053Z,95487.31
2019-03-08T07:47:32.068Z,95495.31
2019-03-08T07:49:58.054Z,95495.20
2019-03-08T07:52:24.075Z,95488.23
2019-03-08T07:54:53.157Z,95493.45
2019-03-08T07:57:16.063Z,95486.28
2019-03-08T07:59:42.065Z,95487.62
2019-03-08T08:02:08.071Z,95480.12
2019-03-08T08:04:34.071Z,95479.73
2019-03-08T08:07:00.077Z,95480.95
2019-03-08T08:09:26.074Z,95477.07
2019-03-08T08:11:52.082Z,95468.54
2019-03-08T08:14:18.091Z,95468.45
2019-03-08T08:16:44.095Z,95464.95
2019-03-08T08:19:10.100Z,95468.13
2019-03-08T08:21:36.091Z,95464.95
2019-03-08T08:24:02.091Z,95464.95
2019-03-08T08:26:28.109Z,95468.05
2019-03-08T08:28:55.910Z,95473.45
2019-03-08T08:31:20.114Z,95471.73
2019-03-08T08:33:46.147Z,95468.05
2019-03-08T08:36:12.142Z,95472.95
2019-03-08T08:38:38.166Z,95469.26
2019-03-08T08:41:04.174Z,95469.88
2019-03-08T08:43:30.179Z,95472.45
2019-03-08T08:45:56.195Z,95468.95
2019-03-08T08:48:22.203Z,95468.05
2019-03-08T08:50:48.256Z,95471.63
2019-03-08T08:53:14.255Z,95466.70
2019-03-08T08:55:40.253Z,95469.38
2019-03-08T08:58:06.313Z,95460.45
2019-03-08T09:00:32.329Z,95457.87
2019-03-08T09:02:58.324Z,95456.47
2019-03-08T09:05:24.339Z,95450.91
2019-03-08T09:07:50.329Z,95452.24
2019-03-08T09:10:16.331Z,95448.05
2019-03-08T09:12:42.324Z,95449.46
2019-03-08T09:15:08.328Z,95452.88
2019-03-08T09:17:34.335Z,95450.72
2019-03-08T09:20:00.358Z,95451.13
2019-03-08T09:22:26.331Z,95455.35
2019-03-08T09:24:52.330Z,95451.02
2019-03-08T09:27:18.331Z,95449.91
2019-03-08T09:29:44.440Z,95447.73
2019-03-08T09:32:10.439Z,95456.27
2019-03-08T09:34:36.447Z,95450.32
2019-03-08T09:37:02.454Z,95448.77
2019-03-08T09:39:28.462Z,95447.66
2019-03-08T09:41:54.459Z,95445.41
2019-03-08T09:44:20.483Z,95440.48
2019-03-08T09:46:46.470Z,95444.38
2019-03-08T09:49:12.464Z,95443.87
2019-03-08T09:51:38.471Z,95437.70
2019-03-08T09:54:04.484Z,95443.45
2019-03-08T09:56:30.506Z,95435.95
2019-03-08T09:58:56.508Z,95437.63
2019-03-08T10:01:22.501Z,95437.09
2019-03-08T10:03:48.510Z,95436.18
2019-03-08T10:06:14.516Z,95426.16
2019-03-08T10:08:40.523Z,95426.55
2019-03-08T10:11:06.527Z,95418.35
2019-03-08T10:13:32.541Z,95420.91
2019-03-08T10:15:58.585Z,95418.38
2019-03-08T10:18:24.583Z,95411.70
2019-03-08T10:20:50.607Z,95405.34
2019-03-08T10:23:19.962Z,95411.09
2019-03-08T10:25:42.650Z,95405.56
2019-03-08T10:28:08.651Z,95401.36
2019-03-08T10:30:34.653Z,95408.66
2019-03-08T10:33:00.657Z,95407.85
2019-03-08T10:35:26.654Z,95409.69
2019-03-08T10:37:52.651Z,95408.77
2019-03-08T10:40:18.660Z,95401.80
2019-03-08T10:42:44.770Z,95401.27
2019-03-08T10:45:10.763Z,95387.83
2019-03-08T10:47:36.766Z,95397.07
2019-03-08T10:50:02.773Z,95398.53
2019-03-08T10:52:28.791Z,95403.75
2019-03-08T10:54:54.792Z,95385.51
2019-03-08T10:57:20.803Z,95383.34
2019-03-08T10:59:46.808Z,95377.30
2019-03-08T11:02:12.808Z,95369.80
2019-03-08T11:04:38.816Z,95372.17
2019-03-08T11:07:04.817Z,95365.72
2019-03-08T11:09:30.818Z,95361.52
2019-03-08T11:11:56.822Z,95352.80
2019-03-08T11:14:22.821Z,95348.91
2019-03-08T11:16:48.819Z,95348.19
2019-03-08T11:19:14.822Z,95345.82
2019-03-08T11:21:40.855Z,95339.27
2019-03-08T11:24:06.861Z,95331.45
2019-03-08T11:26:32.917Z,95331.37
2019-03-08T11:28:58.935Z,95322.87
2019-03-08T11:31:24.937Z,95321.53
2019-03-08T11:33:50.983Z,95322.12
2019-03-08T11:36:16.986Z,95315.35
2019-03-08T11:38:42.991Z,95312.98
2019-03-08T11:41:08.982Z,95304.47
2019-03-08T11:43:34.988Z,95307.55
2019-03-08T11:46:00.995Z,95304.59
2019-03-08T11:48:27.000Z,95298.22
2019-03-08T11:50:53.000Z,95294.52
2019-03-08T11:53:18.998Z,95297.80
2019-03-08T11:55:45.003Z,95298.64
2019-03-08T11:58:11.007Z,95291.67
2019-03-08T12:00:37.007Z,95292.89
2019-03-08T12:03:03.042Z,95282.22
2019-03-08T12:05:29.069Z,95279.55
2019-03-08T12:07:55.067Z,95269.39
2019-03-08T12:10:21.069Z,95269.72
2019-03-08T12:12:47.067Z,95267.97
2019-03-08T12:15:14.450Z,95260.80
2019-03-08T12:17:39.079Z,95259.27
2019-03-08T12:20:05.089Z,95256.80
2019-03-08T12:22:31.099Z,95255.05
2019-03-08T12:24:57.109Z,95253.40
2019-03-08T12:27:23.224Z,95253.72
2019-03-08T12:29:49.231Z,95246.13
2019-03-08T12:32:15.239Z,95246.44
2019-03-08T12:34:41.254Z,95242.94
2019-03-08T12:37:07.251Z,95239.77
2019-03-08T12:39:33.251Z,95241.11
2019-03-08T12:41:59.275Z,95234.23
2019-03-08T12:44:25.276Z,95231.15
2019-03-08T12:46:51.284Z,95228.69
2019-03-08T12:49:17.292Z,95230.53
2019-03-08T12:51:43.308Z,95229.81
2019-03-08T12:54:09.304Z,95225.31
2019-03-08T12:56:35.308Z,95230.11
2019-03-08T12:59:01.473Z,95227.56
2019-03-08T13:01:27.484Z,95229.61
2019-03-08T13:03:53.479Z,95225.61
2019-03-08T13:06:19.488Z,95228.69
2019-03-08T13:08:45.602Z,95216.39
2019-03-08T13:11:11.792Z,95218.02
2019-03-08T13:13:37.856Z,95215.45
2019-03-08T13:16:03.865Z,95211.66
2019-03-08T13:18:29.866Z,95208.78
2019-03-08T13:20:55.890Z,95209.00
2019-03-08T13:23:21.862Z,95207.67
2019-03-08T13:25:47.916Z,95205.13
2019-03-08T13:28:13.953Z,95205.13
2019-03-08T13:30:39.915Z,95200.79
2019-03-08T13:33:05.920Z,95200.59
2019-03-08T13:35:31.920Z,95196.17
2019-03-08T13:37:57.972Z,95196.59
2019-03-08T13:40:23.967Z,95199.16
2019-03-08T13:42:49.974Z,95196.80
2019-03-08T13:45:15.970Z,95189.81
2019-03-08T13:47:41.966Z,95189.22
2019-03-08T13:50:07.976Z,95187.27
2019-03-08T13:52:33.989Z,95182.52
2019-03-08T13:55:00.025Z,95178.31
2019-03-08T13:57:26.051Z,95181.94
2019-03-08T13:59:52.070Z,95179.86
2019-03-08T14:02:18.074Z,95180.90
2019-03-08T14:04:44.074Z,95179.98
2019-03-08T14:07:10.084Z,95183.48
2019-03-08T14:09:36.085Z,95184.28
2019-03-08T14:12:02.086Z,95183.27
2019-03-08T14:14:28.089Z,95183.77
2019-03-08T14:16:54.096Z,95182.03
2019-03-08T14:19:20.128Z,95176.90
2019-03-08T14:21:46.127Z,95179.36
2019-03-08T14:24:12.120Z,95176.48
2019-03-08T14:26:38.133Z,95178.23
2019-03-08T14:29:04.128Z,95176.69
2019-03-08T14:31:30.124Z,95175.65
2019-03-08T14:33:56.120Z,95175.56
2019-03-08T14:36:22.125Z,95171.35
2019-03-08T14:38:48.126Z,95165.09
2019-03-08T14:41:14.131Z,95167.35
2019-03-08T14:43:40.130Z,95172.27
2019-03-08T14:46:06.167Z,95172.59
2019-03-08T14:48:32.213Z,95171.47
2019-03-08T14:50:58.192Z,95177.31
2019-03-08T14:53:24.215Z,95176.06
2019-03-08T14:55:50.267Z,95177.61
2019-03-08T14:58:16.261Z,95180.59
2019-03-08T15:00:42.264Z,95185.41
2019-03-08T15:03:08.267Z,95180.59
2019-03-08T15:05:34.281Z,95174.52
2019-03-08T15:08:00.284Z,95182.53
2019-03-08T15:10:26.292Z,95179.27
2019-03-08T15:12:53.160Z,95188.28
2019-03-08T15:15:18.309Z,95183.77
2019-03-08T15:17:44.302Z,95181.92
2019-03-08T15:20:15.145Z,95187.67
2019-03-08T15:22:38.109Z,95187.05
2019-03-08T15:25:02.297Z,95190.75
2019-03-08T15:27:28.303Z,95195.67
2019-03-08T15:29:54.906Z,95197.51
2019-03-08T15:32:20.331Z,95201.09
2019-03-08T15:34:46.331Z,95202.13
2019-03-08T15:37:12.336Z,95206.63
2019-03-08T15:39:38.503Z,95214.13
2019-03-08T15:42:04.500Z,95215.97
2019-03-08T15:44:30.504Z,95217.00
2019-03-08T15:46:59.183Z,95222.34
2019-03-08T15:49:22.524Z,95220.17
2019-03-08T15:51:48.522Z,95225.13
2019-03-08T15:54:14.527Z,95230.13
2019-03-08T15:56:40.523Z,95235.46
2019-03-08T15:59:06.572Z,95233.71
2019-03-08T16:01:32.571Z,95236.00
2019-03-08T16:03:58.576Z,95232.08
2019-03-08T16:06:24.571Z,95237.53
2019-03-08T16:08:50.583Z,95245.53
2019-03-08T16:11:16.809Z,95246.13
2019-03-08T16:13:42.819Z,95253.32
2019-03-08T16:16:08.816Z,95247.58
2019-03-08T16:18:34.808Z,95249.83
2019-03-08T16:21:00.833Z,95251.36
2019-03-08T16:23:26.865Z,95250.11
2019-03-08T16:25:52.867Z,95251.45
2019-03-08T16:28:18.880Z,95252.48
2019-03-08T16:30:47.600Z,95254.73
2019-03-08T16:33:10.913Z,95257.93
2019-03-08T16:35:36.919Z,95255.35
2019-03-08T16:38:02.919Z,95255.05
2019-03-08T16:40:28.941Z,95265.30
2019-03-08T16:42:54.977Z,95265.72
2019-03-08T16:45:21.186Z,95270.63
2019-03-08T16:47:47.186Z,95267.97
2019-03-08T16:50:13.214Z,95273.30
2019-03-08T16:52:39.218Z,95268.47
2019-03-08T16:55:05.216Z,95278.72
2019-03-08T16:57:31.228Z,95273.39
2019-03-08T16:59:57.290Z,95286.42
2019-03-08T17:02:23.298Z,95285.00
2019-03-08T17:04:49.300Z,95284.05
2019-03-08T17:07:15.315Z,95285.80
2019-03-08T17:09:42.768Z,95292.67
2019-03-08T17:12:07.353Z,95294.42
2019-03-08T17:14:33.355Z,95285.00
2019-03-08T17:16:59.365Z,95291.05
2019-03-08T17:19:25.361Z,95291.04
2019-03-08T17:21:54.140Z,95300.67
2019-03-08T17:24:20.158Z,95307.05
2019-03-08T17:26:46.171Z,95308.39
2019-03-08T17:29:12.177Z,95308.89
2019-03-08T17:31:38.176Z,95312.06
2019-03-08T17:34:04.182Z,95315.16
2019-03-08T17:36:30.384Z,95307.45
2019-03-08T17:38:56.394Z,95303.45
2019-03-08T17:41:22.698Z,95307.06
2019-03-08T17:43:48.393Z,95306.53
2019-03-08T17:46:14.396Z,95312.28
2019-03-08T17:48:40.395Z,95315.45
2019-03-08T17:51:06.395Z,95314.32
2019-03-08T17:53:32.401Z,95312.98
2019-03-08T17:55:58.397Z,95315.66
2019-03-08T17:58:24.399Z,95317.60
2019-03-08T18:00:50.400Z,95314.85
2019-03-08T18:03:16.391Z,95322.65
2019-03-08T18:05:42.415Z,95324.48
2019-03-08T18:08:08.411Z,95332.48
2019-03-08T18:10:34.441Z,95334.02
2019-03-08T18:13:00.446Z,95339.77
2019-03-08T18:15:26.450Z,95339.66
2019-03-08T18:17:52.450Z,95344.19
2019-03-08T18:20:18.465Z,95348.07
2019-03-08T18:22:44.475Z,95349.11
2019-03-08T18:25:10.478Z,95349.94
2019-03-08T18:27:36.492Z,95352.91
2019-03-08T18:30:02.488Z,95356.19
2019-03-08T18:32:28.494Z,95357.19
2019-03-08T18:34:54.503Z,95362.22
2019-03-08T18:37:20.520Z,95367.36
2019-03-08T18:39:46.522Z,95366.23
2019-03-08T18:42:12.527Z,95373.52
2019-03-08T18:44:38.533Z,95378.33
2019-03-08T18:47:04.567Z,95378.66
2019-03-08T18:49:30.556Z,95374.73
2019-03-08T18:51:56.548Z,95378.73
2019-03-08T18:54:22.552Z,95381.73
2019-03-08T18:56:48.543Z,95379.47
2019-03-08T18:59:14.544Z,95385.94
2019-03-08T19:01:40.545Z,95393.20
2019-03-08T19:04:06.588Z,95405.21
2019-03-08T19:06:32.583Z,95399.46
2019-03-08T19:08:58.582Z,95404.21
2019-03-08T19:11:24.573Z,95400.41
2019-03-08T19:13:50.579Z,95409.20
2019-03-08T19:16:16.587Z,95405.13
2019-03-08T19:18:42.583Z,95412.92
2019-03-08T19:21:08.591Z,95412.80
2019-03-08T19:23:34.590Z,95418.46
2019-03-08T19:26:00.604Z,95418.34
2019-03-08T19:28:26.624Z,95417.84
2019-03-08T19:30:52.622Z,95419.68
2019-03-08T19:33:18.616Z,95420.93
2019-03-08T19:35:44.614Z,95425.77
2019-03-08T19:38:10.612Z,95427.09
2019-03-08T19:40:36.615Z,95427.59
2019-03-08T19:43:02.607Z,95429.43
2019-03-08T19:45:28.602Z,95427.80
2019-03-08T19:47:54.606Z,95428.09
2019-03-08T19:50:20.608Z,95428.52
2019-03-08T19:52:46.609Z,95430.56
2019-03-08T19:55:12.618Z,95432.31
2019-03-08T19:57:38.625Z,95432.93
2019-03-08T20:00:04.669Z,95436.52
2019-03-08T20:02:30.651Z,95436.59
2019-03-08T20:04:56.652Z,95439.27
2019-03-08T20:07:22.647Z,95439.46
2019-03-08T20:09:48.735Z,95440.80
2019-03-08T20:12:14.726Z,95445.33
2019-03-08T20:14:40.727Z,95445.55
2019-03-08T20:17:06.731Z,95444.59
2019-03-08T20:19:32.724Z,95446.77
2019-03-08T20:21:58.744Z,95444.72
2019-03-08T20:24:25.151Z,95448.94
2019-03-08T20:26:51.161Z,95450.27
2019-03-08T20:29:17.154Z,95456.44
2019-03-08T20:31:43.152Z,95453.44
2019-03-08T20:34:09.161Z,95453.94
2019-03-08T20:36:35.185Z,95460.02
2019-03-08T20:39:01.166Z,95457.77
2019-03-08T20:41:27.166Z,95456.94
2019-03-08T20:43:53.171Z,95457.35
2019-03-08T20:46:19.176Z,95459.48
2019-03-08T20:48:45.244Z,95457.35
2019-03-08T20:51:11.244Z,95454.27
2019-03-08T20:53:37.273Z,95463.10
2019-03-08T20:56:03.265Z,95457.85
2019-03-08T20:58:29.270Z,95451.69
2019-03-08T21:00:55.294Z,95464.94
2019-03-08T21:03:22.261Z,95461.36
2019-03-08T21:05:48.458Z,95455.19
2019-03-08T21:08:14.545Z,95447.69
2019-03-08T21:10:40.554Z,95451.69
2019-03-08T21:13:06.551Z,95450.69
2019-03-08T21:15:32.577Z,95450.69
2019-03-08T21:17:58.652Z,95452.52
2019-03-08T21:20:24.648Z,95453.85
2019-03-08T21:22:50.648Z,95455.10
2019-03-08T21:25:16.643Z,95456.52
2019-03-08T21:27:42.643Z,95456.44
2019-03-08T21:30:08.644Z,95453.77
2019-03-08T21:32:34.638Z,95457.35
2019-03-08T21:35:00.717Z,95451.60
2019-03-08T21:37:26.716Z,95457.44
2019-03-08T21:39:52.714Z,95466.16
2019-03-08T21:42:18.714Z,95460.82
2019-03-08T21:44:44.723Z,95462.69
2019-03-08T21:47:10.755Z,95467.48
2019-03-08T21:49:36.753Z,95462.16
2019-03-08T21:52:02.750Z,95456.22
2019-03-08T21:54:28.755Z,95469.23
2019-03-08T21:56:54.828Z,95463.91
2019-03-08T21:59:20.825Z,95466.98
2019-03-08T22:01:46.818Z,95464.82
2019-03-08T22:04:12.856Z,95471.48
2019-03-08T22:06:38.864Z,95476.33
2019-03-08T22:09:04.855Z,95476.83
2019-03-08T22:11:30.857Z,95474.16
2019-03-08T22:13:56.854Z,95473.23
2019-03-08T22:16:22.852Z,95471.11
2019-03-08T22:18:48.951Z,95472.73
2019-03-08T22:21:14.954Z,95479.19
2019-03-08T22:23:40.949Z,95481.86
2019-03-08T22:26:06.952Z,95481.66
2019-03-08T22:28:32.947Z,95483.11
2019-03-08T22:30:58.959Z,95477.36
2019-03-08T22:33:24.963Z,95484.72
2019-03-08T22:35:50.983Z,95478.89
2019-03-08T22:38:16.993Z,95483.39
2019-03-08T22:40:42.985Z,95490.05
2019-03-08T22:43:08.983Z,95499.09
2019-03-08T22:45:34.978Z,95494.75
2019-03-08T22:48:01.021Z,95499.09
2019-03-08T22:50:27.024Z,95500.92
2019-03-08T22:52:53.030Z,95505.42
2019-03-08T22:55:19.043Z,95509.53
2019-03-08T22:57:45.041Z,95511.78
2019-03-08T23:00:11.039Z,95515.78
2019-03-08T23:02:37.041Z,95514.53
2019-03-08T23:05:03.049Z,95515.48
2019-03-08T23:07:29.039Z,95513.73
2019-03-08T23:09:55.039Z,95513.92
2019-03-08T23:12:21.040Z,95513.81
2019-03-08T23:14:47.051Z,95519.27
2019-03-08T23:17:13.048Z,95518.73
2019-03-08T23:19:39.050Z,95526.84
2019-03-08T23:22:05.055Z,95517.20
2019-03-08T23:24:31.047Z,95524.80
2019-03-08T23:26:57.078Z,95527.87
2019-03-08T23:29:23.073Z,95534.63
2019-03-08T23:31:49.077Z,95533.70
2019-03-08T23:34:15.076Z,95531.95
2019-03-08T23:36:41.077Z,95527.13
2019-03-08T23:39:07.078Z,95531.54
2019-03-08T23:41:33.074Z,95530.32
2019-03-08T23:43:59.073Z,95531.66
2019-03-08T23:46:25.067Z,95527.66
2019-03-08T23:48:51.103Z,95534.32
2019-03-08T23:51:17.125Z,95533.98
2019-03-08T23:53:43.118Z,95532.27
2019-03-08T23:56:09.166Z,95537.06
2019-03-08T23:58:35.114Z,95534.94
